KGJT/GJT METAR and TAF weather

Enter ICAO airport designator
Station Type Date Time Source
KGJT METAR 2022/06/30 01:04 UTC NOAA

KGJT 300104Z 00000KT 10SM VCTS FEW110 33/03 A3004 RMK AO2 LTG DSNT W TSE0058 T03280033


Station Type Date Time Source
KGJT Decoded METAR 2022/06/30 01:04 UTC NOAA

GRAND JUNCTION WALKER FIELD, CO, United States (KGJT) 39-08N 108-32W 1452M
Jun 29, 2022 - 09:04 PM EDT / 2022.06.30 0104 UTC
Wind: Calm:0
Visibility: 10 mile(s):0
Sky conditions: mostly clear
Weather: thunder in the vicinity; Lightning observed
Temperature: 91.0 F (32.8 C)
Dew Point: 37.9 F (3.3 C)
Relative Humidity: 15%
Pressure (altimeter): 30.04 in. Hg (1017 hPa)
ob: KGJT 300104Z 00000KT 10SM VCTS FEW110 33/03 A3004 RMK AO2 LTG DSNT W TSE0058 T03280033
cycle: 1

Station Type Date Time Source
KGJT TAF 2022/06/30 01:18 UTC NOAA

TAF
AMD KGJT 300114Z 3001/3024 VRB06KT P6SM VCTS SCT100CB
TEMPO 3001/3003 VRB20G35KT -TSRA
FM300400 08008KT P6SM VCSH BKN100
FM300800 10006KT P6SM BKN100
FM301400 15007KT P6SM BKN100
FM301800 17008KT P6SM VCTS BKN090CB OVC120

Example: see airport list